createdAt,value
2023-03-28T00:02:14.884Z,1.70
2023-03-28T00:04:43.154Z,1.60
2023-03-28T00:07:11.949Z,1.20
2023-03-28T00:09:40.268Z,1.60
2023-03-28T00:12:08.722Z,1.70
2023-03-28T00:14:38.065Z,1.40
2023-03-28T00:17:08.681Z,1.40
2023-03-28T00:19:40.828Z,1.23
2023-03-28T00:22:11.458Z,1.57
2023-03-28T00:24:40.073Z,1.40
2023-03-28T00:27:08.509Z,1.40
2023-03-28T00:29:36.841Z,1.60
2023-03-28T00:32:06.033Z,1.60
2023-03-28T00:34:35.651Z,1.53
2023-03-28T00:37:04.750Z,1.40
2023-03-28T00:39:33.347Z,1.43
2023-03-28T00:42:03.508Z,1.30
2023-03-28T00:44:51.926Z,1.30
2023-03-28T00:47:38.931Z,1.10
2023-03-28T00:50:12.812Z,1.30
2023-03-28T00:52:45.049Z,1.40
2023-03-28T00:55:19.570Z,1.40
2023-03-28T00:57:50.310Z,1.30
2023-03-28T01:00:21.146Z,1.10
2023-03-28T01:02:52.564Z,1.20
2023-03-28T01:05:27.625Z,1.10
2023-03-28T01:08:02.838Z,1.20
2023-03-28T01:10:33.519Z,1.20
2023-03-28T01:13:03.892Z,1.10
2023-03-28T01:15:33.812Z,0.90
2023-03-28T01:18:03.271Z,1.00
2023-03-28T01:20:59.196Z,1.20
2023-03-28T01:23:47.879Z,1.03
2023-03-28T01:26:40.778Z,1.10
2023-03-28T01:29:39.978Z,1.00
2023-03-28T01:32:40.160Z,1.07
2023-03-28T01:35:34.701Z,1.40
2023-03-28T01:38:10.199Z,1.13
2023-03-28T01:40:45.147Z,1.00
2023-03-28T01:43:30.431Z,1.20
2023-03-28T01:46:05.850Z,1.20
2023-03-28T01:48:43.052Z,1.10
2023-03-28T01:51:22.171Z,1.10
2023-03-28T01:53:59.073Z,1.13
2023-03-28T01:56:34.591Z,1.00
2023-03-28T01:59:10.689Z,0.90
2023-03-28T02:01:49.604Z,1.00
2023-03-28T02:04:21.394Z,1.10
2023-03-28T02:06:52.784Z,1.00
2023-03-28T02:09:26.474Z,1.10
2023-03-28T02:11:59.606Z,1.00
2023-03-28T02:14:31.274Z,1.10
2023-03-28T02:17:06.523Z,1.10
2023-03-28T02:19:37.955Z,1.00
2023-03-28T02:22:16.559Z,0.90
2023-03-28T02:24:50.702Z,0.97
2023-03-28T02:27:21.175Z,1.30
2023-03-28T02:29:50.631Z,1.00
2023-03-28T02:32:21.953Z,0.93
2023-03-28T02:34:53.927Z,1.00
2023-03-28T02:37:33.004Z,1.10
2023-03-28T02:40:11.997Z,0.90
2023-03-28T02:43:05.763Z,1.00
2023-03-28T02:45:50.751Z,0.90
2023-03-28T02:48:33.833Z,1.07
2023-03-28T02:51:11.675Z,1.00
2023-03-28T02:53:47.011Z,1.20
2023-03-28T02:56:21.901Z,1.00
2023-03-28T02:58:55.051Z,1.10
2023-03-28T03:01:25.588Z,0.97
2023-03-28T03:03:55.429Z,1.03
2023-03-28T03:06:25.005Z,1.00
2023-03-28T03:08:53.294Z,0.90
2023-03-28T03:11:22.945Z,1.00
2023-03-28T03:13:51.219Z,0.90
2023-03-28T03:16:19.806Z,1.20
2023-03-28T03:18:48.626Z,1.00
2023-03-28T03:21:18.485Z,1.00
2023-03-28T03:23:46.968Z,1.07
2023-03-28T03:26:15.490Z,1.00
2023-03-28T03:28:46.057Z,0.97
2023-03-28T03:31:14.801Z,1.03
2023-03-28T03:33:43.310Z,1.00
2023-03-28T03:36:13.920Z,1.00
2023-03-28T03:38:42.443Z,1.20
2023-03-28T03:41:11.802Z,1.03
2023-03-28T03:43:40.105Z,1.13
2023-03-28T03:46:09.968Z,1.00
2023-03-28T03:48:38.385Z,1.10
2023-03-28T03:51:18.128Z,1.03
2023-03-28T03:53:46.863Z,1.10
2023-03-28T03:56:15.323Z,1.00
2023-03-28T03:58:43.895Z,1.10
2023-03-28T04:01:14.112Z,1.00
2023-03-28T04:03:42.563Z,1.07
2023-03-28T04:06:12.042Z,1.00
2023-03-28T04:08:40.344Z,1.10
2023-03-28T04:11:10.576Z,1.00
2023-03-28T04:13:39.021Z,1.00
2023-03-28T04:16:08.309Z,1.00
2023-03-28T04:18:37.962Z,1.10
2023-03-28T04:21:09.754Z,1.33
2023-03-28T04:23:43.812Z,1.20
2023-03-28T04:26:25.841Z,1.10
2023-03-28T04:28:55.001Z,1.20
2023-03-28T04:31:29.686Z,1.00
2023-03-28T04:34:00.560Z,1.20
2023-03-28T04:36:29.283Z,1.00
2023-03-28T04:38:58.503Z,1.37
2023-03-28T04:41:27.050Z,1.30
2023-03-28T04:43:55.307Z,1.50
2023-03-28T04:46:23.957Z,1.30
2023-03-28T04:48:56.281Z,1.47
2023-03-28T04:51:28.715Z,1.10
2023-03-28T04:53:57.052Z,1.23
2023-03-28T04:56:25.356Z,1.40
2023-03-28T04:58:53.708Z,1.50
2023-03-28T05:01:22.657Z,1.30
2023-03-28T05:03:51.039Z,1.20
2023-03-28T05:06:19.375Z,1.17
2023-03-28T05:08:49.087Z,1.20
2023-03-28T05:11:17.398Z,1.30
2023-03-28T05:13:45.888Z,1.07
2023-03-28T05:16:14.312Z,1.40
2023-03-28T05:18:42.656Z,1.30
2023-03-28T05:21:10.927Z,1.30
2023-03-28T05:23:39.187Z,1.40
2023-03-28T05:26:09.233Z,1.33
2023-03-28T05:28:37.443Z,1.60
2023-03-28T05:31:07.623Z,1.67
2023-03-28T05:33:36.156Z,1.90
2023-03-28T05:36:04.681Z,2.20
2023-03-28T05:38:33.756Z,2.00
2023-03-28T05:41:03.140Z,1.90
2023-03-28T05:43:33.009Z,1.80
2023-03-28T05:46:01.653Z,2.00
2023-03-28T05:48:29.918Z,1.80
2023-03-28T05:50:58.392Z,1.80
2023-03-28T05:53:26.887Z,1.47
2023-03-28T05:55:55.137Z,1.60
2023-03-28T05:58:23.453Z,1.50
2023-03-28T06:00:53.124Z,1.73
2023-03-28T06:03:22.432Z,1.50
2023-03-28T06:05:50.929Z,1.30
2023-03-28T06:08:19.175Z,1.60
2023-03-28T06:10:48.590Z,1.47
2023-03-28T06:13:16.856Z,1.30
2023-03-28T06:15:45.091Z,1.60
2023-03-28T06:18:14.903Z,1.50
2023-03-28T06:20:43.648Z,1.40
2023-03-28T06:23:11.902Z,1.43
2023-03-28T06:25:40.179Z,1.50
2023-03-28T06:28:08.483Z,1.33
2023-03-28T06:30:36.814Z,1.40
2023-03-28T06:33:05.289Z,1.40
2023-03-28T06:35:35.248Z,1.40
2023-03-28T06:38:03.685Z,1.40
2023-03-28T06:40:32.007Z,1.60
2023-03-28T06:43:00.555Z,1.90
2023-03-28T06:45:29.510Z,1.90
2023-03-28T06:47:57.806Z,1.80
2023-03-28T06:50:26.177Z,2.10
2023-03-28T06:52:56.180Z,1.90
2023-03-28T06:55:24.751Z,1.77
2023-03-28T06:57:53.046Z,1.80
2023-03-28T07:00:22.269Z,2.13
2023-03-28T07:02:50.836Z,3.20
2023-03-28T07:05:19.587Z,4.53
2023-03-28T07:07:47.923Z,3.30
2023-03-28T07:10:17.948Z,2.30
2023-03-28T07:12:46.474Z,1.93
2023-03-28T07:15:15.268Z,1.80
2023-03-28T07:17:44.022Z,1.80
2023-03-28T07:20:12.784Z,2.10
2023-03-28T07:22:41.026Z,1.90
2023-03-28T07:25:09.934Z,1.73
2023-03-28T07:27:39.953Z,1.60
2023-03-28T07:30:09.470Z,1.40
2023-03-28T07:32:47.866Z,1.90
2023-03-28T07:35:21.214Z,1.80
2023-03-28T07:37:49.576Z,1.77
2023-03-28T07:40:18.225Z,1.40
2023-03-28T07:42:49.975Z,1.40
2023-03-28T07:45:18.407Z,1.57
2023-03-28T07:47:46.749Z,1.30
2023-03-28T07:50:15.912Z,1.37
2023-03-28T07:52:45.825Z,1.60
2023-03-28T07:55:14.295Z,1.30
2023-03-28T07:57:42.816Z,1.20
2023-03-28T08:00:14.281Z,1.30
2023-03-28T08:02:44.991Z,1.60
2023-03-28T08:05:13.629Z,1.40
2023-03-28T08:07:46.068Z,1.60
2023-03-28T08:10:15.138Z,1.73
2023-03-28T08:12:43.961Z,1.67
2023-03-28T08:15:14.148Z,1.60
2023-03-28T08:17:43.109Z,1.70
2023-03-28T08:20:12.765Z,1.60
2023-03-28T08:22:41.377Z,1.70
2023-03-28T08:25:10.848Z,1.50
2023-03-28T08:27:39.202Z,1.60
2023-03-28T08:30:09.525Z,1.60
2023-03-28T08:32:39.263Z,1.57
2023-03-28T08:35:11.014Z,1.47
2023-03-28T08:37:40.275Z,1.23
2023-03-28T08:40:16.330Z,1.40
2023-03-28T08:43:03.925Z,1.30
2023-03-28T08:45:51.533Z,1.37
2023-03-28T08:48:28.396Z,1.40
2023-03-28T08:51:01.321Z,1.70
2023-03-28T08:53:35.177Z,1.10
2023-03-28T08:56:06.312Z,1.40
2023-03-28T08:58:42.777Z,1.40
2023-03-28T09:01:11.836Z,1.40
2023-03-28T09:03:41.698Z,1.40
2023-03-28T09:06:26.232Z,1.40
2023-03-28T09:09:04.947Z,1.53
2023-03-28T09:11:44.541Z,1.40
2023-03-28T09:14:42.958Z,1.40
2023-03-28T09:17:17.863Z,1.63
2023-03-28T09:20:12.389Z,1.17
2023-03-28T09:22:52.782Z,1.40
2023-03-28T09:25:38.544Z,1.40
2023-03-28T09:28:17.455Z,1.50
2023-03-28T09:30:48.373Z,1.40
2023-03-28T09:33:22.045Z,1.27
2023-03-28T09:35:54.202Z,1.30
2023-03-28T09:38:25.516Z,1.30
2023-03-28T09:40:57.209Z,1.40
2023-03-28T09:43:31.709Z,1.50
2023-03-28T09:46:03.346Z,1.50
2023-03-28T09:48:33.863Z,1.40
2023-03-28T09:51:04.726Z,1.40
2023-03-28T09:53:34.632Z,1.40
2023-03-28T09:56:07.769Z,1.30
2023-03-28T09:58:50.918Z,1.50
2023-03-28T10:01:35.291Z,1.47
2023-03-28T10:04:03.852Z,1.40
2023-03-28T10:06:33.830Z,1.80
2023-03-28T10:09:21.211Z,1.53
2023-03-28T10:11:52.258Z,1.50
2023-03-28T10:14:34.663Z,1.47
2023-03-28T10:17:06.813Z,1.77
2023-03-28T10:19:38.526Z,1.67
2023-03-28T10:22:12.273Z,1.50
2023-03-28T10:24:41.444Z,1.50
2023-03-28T10:27:17.312Z,1.60
2023-03-28T10:29:47.470Z,1.60
2023-03-28T10:32:26.207Z,1.65
2023-03-28T10:35:02.984Z,2.00
2023-03-28T10:37:34.337Z,1.50
2023-03-28T10:40:06.954Z,1.50
2023-03-28T10:42:45.317Z,1.70
2023-03-28T10:45:23.984Z,1.60
2023-03-28T10:47:55.739Z,1.70
2023-03-28T10:50:30.705Z,1.50
2023-03-28T10:53:21.202Z,1.50
2023-03-28T10:56:02.112Z,1.38
2023-03-28T10:58:37.145Z,1.40
2023-03-28T11:01:11.176Z,1.35
2023-03-28T11:03:55.669Z,1.50
2023-03-28T11:06:31.006Z,1.42
2023-03-28T11:09:08.506Z,1.52
2023-03-28T11:11:51.113Z,1.40
2023-03-28T11:14:35.211Z,1.33
2023-03-28T11:17:09.659Z,1.20
2023-03-28T11:19:52.381Z,1.30
2023-03-28T11:22:30.994Z,1.55
2023-03-28T11:25:12.531Z,1.27
2023-03-28T11:27:47.148Z,1.20
2023-03-28T11:30:18.916Z,1.35
2023-03-28T11:32:51.798Z,1.20
2023-03-28T11:35:27.527Z,1.30
2023-03-28T11:38:02.466Z,1.30
2023-03-28T11:40:37.475Z,1.20
2023-03-28T11:43:07.551Z,1.17
2023-03-28T11:45:50.973Z,1.15
2023-03-28T11:48:26.842Z,1.27
2023-03-28T11:51:03.686Z,1.27
2023-03-28T11:53:34.714Z,1.30
2023-03-28T11:56:12.479Z,1.27
2023-03-28T11:58:45.607Z,1.13
2023-03-28T12:01:19.242Z,1.20
2023-03-28T12:03:59.718Z,1.20
2023-03-28T12:06:34.095Z,1.20
2023-03-28T12:09:12.576Z,1.30
2023-03-28T12:11:48.914Z,1.30
2023-03-28T12:14:36.372Z,1.25
2023-03-28T12:17:15.102Z,1.00
2023-03-28T12:19:44.058Z,1.20
2023-03-28T12:22:21.400Z,1.27
2023-03-28T12:24:54.114Z,1.10
2023-03-28T12:27:32.013Z,1.10
2023-03-28T12:30:07.647Z,1.15
2023-03-28T12:32:45.428Z,1.13
2023-03-28T12:35:19.679Z,1.40
2023-03-28T12:38:06.808Z,1.02
2023-03-28T12:40:51.219Z,1.13
2023-03-28T12:43:26.144Z,0.90
2023-03-28T12:45:57.687Z,1.40
2023-03-28T12:48:34.301Z,1.30
2023-03-28T12:51:14.156Z,1.30
2023-03-28T12:53:47.337Z,1.50
2023-03-28T12:56:17.191Z,1.25
2023-03-28T12:58:48.954Z,1.35
2023-03-28T13:01:36.305Z,1.35
2023-03-28T13:04:14.630Z,1.40
2023-03-28T13:06:49.129Z,1.42
2023-03-28T13:09:46.506Z,1.35
2023-03-28T13:12:42.314Z,1.23
2023-03-28T13:15:32.440Z,1.70
2023-03-28T13:18:26.286Z,1.10
2023-03-28T13:20:55.007Z,1.13
2023-03-28T13:23:30.223Z,1.27
2023-03-28T13:26:00.126Z,1.30
2023-03-28T13:28:40.725Z,1.38
2023-03-28T13:31:13.327Z,1.20
2023-03-28T13:33:47.499Z,1.15
2023-03-28T13:36:25.084Z,1.20
2023-03-28T13:39:10.920Z,1.30
2023-03-28T13:41:57.443Z,1.20
2023-03-28T13:44:32.226Z,1.20
2023-03-28T13:47:02.012Z,1.40
2023-03-28T13:49:40.063Z,1.27
2023-03-28T13:52:11.842Z,1.27
2023-03-28T13:54:40.172Z,1.10
2023-03-28T13:57:14.128Z,1.30
2023-03-28T13:59:53.281Z,1.00
2023-03-28T14:02:32.003Z,1.30
2023-03-28T14:05:13.965Z,1.10
2023-03-28T14:07:42.774Z,1.40
2023-03-28T14:10:29.560Z,1.10
2023-03-28T14:13:01.026Z,1.23
2023-03-28T14:15:31.948Z,1.40
2023-03-28T14:18:02.701Z,1.50
2023-03-28T14:20:31.826Z,1.70
2023-03-28T14:23:01.406Z,1.48
2023-03-28T14:25:30.845Z,1.30
2023-03-28T14:28:06.880Z,1.42
2023-03-28T14:30:40.566Z,1.40
2023-03-28T14:33:21.104Z,1.60
2023-03-28T14:35:58.609Z,1.50
2023-03-28T14:38:32.298Z,1.60
2023-03-28T14:41:15.277Z,1.80
2023-03-28T14:43:43.778Z,1.52
2023-03-28T14:46:12.562Z,1.40
2023-03-28T14:48:43.857Z,1.60
2023-03-28T14:51:15.060Z,1.60
2023-03-28T14:53:47.790Z,1.50
2023-03-28T14:56:19.823Z,1.40
2023-03-28T14:58:50.061Z,1.50
2023-03-28T15:01:23.192Z,1.40
2023-03-28T15:03:59.840Z,1.35
2023-03-28T15:06:29.617Z,1.52
2023-03-28T15:09:00.501Z,1.60
2023-03-28T15:11:32.642Z,1.75
2023-03-28T15:14:04.343Z,1.40
2023-03-28T15:16:36.769Z,1.63
2023-03-28T15:19:09.376Z,1.48
2023-03-28T15:21:39.599Z,1.52
2023-03-28T15:24:12.856Z,1.35
2023-03-28T15:26:45.587Z,1.70
2023-03-28T15:29:18.612Z,1.60
2023-03-28T15:31:47.974Z,1.50
2023-03-28T15:34:23.094Z,1.50
2023-03-28T15:36:54.574Z,1.85
2023-03-28T15:39:25.993Z,1.60
2023-03-28T15:41:56.628Z,1.50
2023-03-28T15:44:30.687Z,1.60
2023-03-28T15:47:02.217Z,1.67
2023-03-28T15:49:36.911Z,1.92
2023-03-28T15:52:09.384Z,1.77
2023-03-28T15:54:44.408Z,1.67
2023-03-28T15:57:15.799Z,1.60
2023-03-28T15:59:48.691Z,1.40
2023-03-28T16:02:32.826Z,1.60
2023-03-28T16:05:07.707Z,1.40
2023-03-28T16:07:37.463Z,1.45
2023-03-28T16:10:06.343Z,1.60
2023-03-28T16:12:35.247Z,1.60
2023-03-28T16:15:04.541Z,1.90
2023-03-28T16:17:33.340Z,2.20
2023-03-28T16:20:01.857Z,1.70
2023-03-28T16:22:31.442Z,1.90
2023-03-28T16:24:59.720Z,1.85
2023-03-28T16:27:28.002Z,2.03
2023-03-28T16:29:56.845Z,2.30
2023-03-28T16:32:25.116Z,2.08
2023-03-28T16:34:53.489Z,2.10
2023-03-28T16:37:21.900Z,1.75
2023-03-28T16:39:51.571Z,2.08
2023-03-28T16:42:20.842Z,2.20
2023-03-28T16:44:49.194Z,2.00
2023-03-28T16:47:17.484Z,2.20
2023-03-28T16:49:45.753Z,2.20
2023-03-28T16:52:14.214Z,2.00
2023-03-28T16:54:42.536Z,1.88
2023-03-28T16:57:12.307Z,2.10
2023-03-28T16:59:40.564Z,2.25
2023-03-28T17:02:09.163Z,2.30
2023-03-28T17:04:37.636Z,2.42
2023-03-28T17:07:06.262Z,2.30
2023-03-28T17:09:34.761Z,2.20
2023-03-28T17:12:02.978Z,2.13
2023-03-28T17:14:32.592Z,2.40
2023-03-28T17:17:00.908Z,2.05
2023-03-28T17:19:29.322Z,2.10
2023-03-28T17:21:57.922Z,2.35
2023-03-28T17:24:26.384Z,4.50
2023-03-28T17:26:54.947Z,7.20
2023-03-28T17:29:23.539Z,8.27
2023-03-28T17:31:54.013Z,11.98
2023-03-28T17:34:23.754Z,16.55
2023-03-28T17:36:54.197Z,18.50
2023-03-28T17:39:23.227Z,24.27
2023-03-28T17:41:51.595Z,58.45
2023-03-28T17:44:20.089Z,48.97
2023-03-28T17:46:48.447Z,31.30
2023-03-28T17:49:18.698Z,22.17
2023-03-28T17:51:47.388Z,24.17
2023-03-28T17:54:15.753Z,29.13
2023-03-28T17:56:44.683Z,22.05
2023-03-28T17:59:13.005Z,16.13
2023-03-28T18:01:41.606Z,11.80
2023-03-28T18:04:10.068Z,10.73
2023-03-28T18:06:40.501Z,18.17
2023-03-28T18:09:08.920Z,29.60
2023-03-28T18:11:39.612Z,19.58
2023-03-28T18:14:09.501Z,13.25
2023-03-28T18:16:38.867Z,14.77
2023-03-28T18:19:09.148Z,14.15
2023-03-28T18:21:38.270Z,13.65
2023-03-28T18:24:08.252Z,11.80
2023-03-28T18:26:36.514Z,10.97
2023-03-28T18:29:05.080Z,9.35
2023-03-28T18:31:34.830Z,8.37
2023-03-28T18:34:05.200Z,7.68
2023-03-28T18:36:33.956Z,6.60
2023-03-28T18:39:02.285Z,6.80
2023-03-28T18:41:31.906Z,7.20
2023-03-28T18:44:00.281Z,8.23
2023-03-28T18:46:29.918Z,15.85
2023-03-28T18:48:59.641Z,20.80
2023-03-28T18:51:28.810Z,15.70
2023-03-28T18:53:57.286Z,11.53
2023-03-28T18:56:25.824Z,8.53
2023-03-28T18:58:57.298Z,10.37
2023-03-28T19:01:25.568Z,14.03
2023-03-28T19:03:55.494Z,13.80
2023-03-28T19:06:23.890Z,16.17
2023-03-28T19:08:52.737Z,10.80
2023-03-28T19:11:21.377Z,6.70
2023-03-28T19:13:50.504Z,6.40
2023-03-28T19:16:20.294Z,6.30
2023-03-28T19:18:48.728Z,5.70
2023-03-28T19:21:17.838Z,5.90
2023-03-28T19:23:48.663Z,5.17
2023-03-28T19:26:18.340Z,5.20
2023-03-28T19:28:47.064Z,5.87
2023-03-28T19:31:15.837Z,6.53
2023-03-28T19:33:46.496Z,4.93
2023-03-28T19:36:14.994Z,4.20
2023-03-28T19:38:43.292Z,4.50
2023-03-28T19:41:18.219Z,4.30
2023-03-28T19:43:47.946Z,4.27
2023-03-28T19:46:20.461Z,3.70
2023-03-28T19:48:52.870Z,4.00
2023-03-28T19:51:21.308Z,4.20
2023-03-28T19:53:49.617Z,5.57
2023-03-28T19:56:19.721Z,5.00
2023-03-28T19:58:48.870Z,4.27
2023-03-28T20:01:17.458Z,5.03
2023-03-28T20:03:47.800Z,4.30
2023-03-28T20:06:18.251Z,4.00
2023-03-28T20:08:46.804Z,4.70
2023-03-28T20:11:17.007Z,4.07
2023-03-28T20:13:45.912Z,4.80
2023-03-28T20:16:15.021Z,5.20
2023-03-28T20:18:44.738Z,5.40
2023-03-28T20:21:15.007Z,5.50
2023-03-28T20:23:45.396Z,5.53
2023-03-28T20:26:16.910Z,4.63
2023-03-28T20:28:50.278Z,4.17
2023-03-28T20:31:19.860Z,3.60
2023-03-28T20:33:49.094Z,3.07
2023-03-28T20:36:17.801Z,3.50
2023-03-28T20:38:47.716Z,5.27
2023-03-28T20:41:17.857Z,4.60
2023-03-28T20:43:48.641Z,3.87
2023-03-28T20:46:20.273Z,3.67
2023-03-28T20:48:53.532Z,3.83
2023-03-28T20:51:24.229Z,4.20
2023-03-28T20:53:58.689Z,3.73
2023-03-28T20:56:29.376Z,3.70
2023-03-28T20:58:59.642Z,3.13
2023-03-28T21:01:32.855Z,3.33
2023-03-28T21:04:01.811Z,2.80
2023-03-28T21:06:33.651Z,2.60
2023-03-28T21:09:06.318Z,3.10
2023-03-28T21:11:37.365Z,2.63
2023-03-28T21:14:08.948Z,2.80
2023-03-28T21:16:37.856Z,2.70
2023-03-28T21:19:06.872Z,3.37
2023-03-28T21:21:35.243Z,2.50
2023-03-28T21:24:07.449Z,2.90
2023-03-28T21:26:36.066Z,3.00
2023-03-28T21:29:04.906Z,3.10
2023-03-28T21:31:33.710Z,3.33
2023-03-28T21:34:02.633Z,2.80
2023-03-28T21:36:32.429Z,2.80
2023-03-28T21:39:01.150Z,3.10
2023-03-28T21:41:31.401Z,3.10
2023-03-28T21:43:59.981Z,2.83
2023-03-28T21:46:28.414Z,2.50
2023-03-28T21:48:56.752Z,2.60
2023-03-28T21:51:25.910Z,2.70
2023-03-28T21:53:54.222Z,2.60
2023-03-28T21:56:23.360Z,2.80
2023-03-28T21:58:53.002Z,2.90
2023-03-28T22:01:21.904Z,2.80
2023-03-28T22:03:50.491Z,2.50
2023-03-28T22:06:20.799Z,2.60
2023-03-28T22:08:52.404Z,3.30
2023-03-28T22:11:28.111Z,2.87
2023-03-28T22:14:02.535Z,2.70
2023-03-28T22:16:32.502Z,3.00
2023-03-28T22:19:01.031Z,2.60
2023-03-28T22:21:31.525Z,2.63
2023-03-28T22:24:00.403Z,2.80
2023-03-28T22:26:28.662Z,2.60
2023-03-28T22:28:59.612Z,2.60
2023-03-28T22:31:28.562Z,2.73
2023-03-28T22:33:57.715Z,3.13
2023-03-28T22:36:26.081Z,2.60
2023-03-28T22:38:55.564Z,2.40
2023-03-28T22:41:24.611Z,2.80
2023-03-28T22:43:52.975Z,2.73
2023-03-28T22:46:22.759Z,2.87
2023-03-28T22:48:54.351Z,2.90
2023-03-28T22:51:25.273Z,2.87
2023-03-28T22:53:54.197Z,2.80
2023-03-28T22:56:24.412Z,2.63
2023-03-28T22:58:53.994Z,2.83
2023-03-28T23:01:26.231Z,2.50
2023-03-28T23:03:54.648Z,2.50
2023-03-28T23:06:22.864Z,2.20
2023-03-28T23:08:51.196Z,2.13
2023-03-28T23:11:19.474Z,2.33
2023-03-28T23:13:47.792Z,2.23
2023-03-28T23:16:16.117Z,2.57
2023-03-28T23:18:45.898Z,2.27
2023-03-28T23:21:14.696Z,2.53
2023-03-28T23:23:43.174Z,2.57
2023-03-28T23:26:11.885Z,2.90
2023-03-28T23:28:40.170Z,2.30
2023-03-28T23:31:08.724Z,2.10
2023-03-28T23:33:37.250Z,2.40
2023-03-28T23:36:07.969Z,2.90
2023-03-28T23:38:36.647Z,2.97
2023-03-28T23:41:04.984Z,2.73
2023-03-28T23:43:33.391Z,2.50
2023-03-28T23:46:04.204Z,2.40
2023-03-28T23:48:33.065Z,2.27
2023-03-28T23:51:02.228Z,2.10
2023-03-28T23:53:32.133Z,2.13
2023-03-28T23:56:00.393Z,1.87
2023-03-28T23:58:28.687Z,1.93
